Time;durP1;ratioP1;P1;durP2;ratioP2;P2;SDS_P1;SDS_P2;PMS_P1;PMS_P2;Temp;Humidity;BMP_temperature;BMP_pressure;BME280_temperature;BME280_humidity;BME280_pressure;Samples;Min_cycle;Max_cycle;Signal;HPM_P1;HPM_P2
2023/10/15 00:01:05;;;;;;;;;;;;;;;;;;112391;211;41821;-48
2023/10/15 00:03:58;;;;;;;;;;;;;;;;;;112405;211;41206;-51
2023/10/15 00:06:31;;;;;;;;;;;;;;;;;;112326;211;46514;-51
2023/10/15 00:09:08;;;;;;;;;;;;;;;;;;112377;211;44050;-47
2023/10/15 00:11:41;;;;;;;;;;;;;;;;;;112403;211;41687;-47
2023/10/15 00:14:15;;;;;;;;;;;;;;;;;;112321;211;38537;-50
2023/10/15 00:16:50;;;;;;;;;;;;;;;;;;112335;211;45359;-46
2023/10/15 00:19:25;;;;;;;;;;;;;;;;;;112346;211;42816;-49
2023/10/15 00:21:58;;;;;;;;;;;;;;;;;;112367;211;41635;-50
2023/10/15 00:24:33;;;;;;;;;;;;;;;;;;112316;211;40046;-47
2023/10/15 00:27:07;;;;;;;;;;;;;;;;;;112363;211;45411;-47
2023/10/15 00:29:42;;;;;;;;;;;;;;;;;;112353;211;42526;-50
2023/10/15 00:32:14;;;;;;;;;;;;;;;;;;112356;211;41673;-49
2023/10/15 00:34:49;;;;;;;;;;;;;;;;;;112335;211;38775;-50
2023/10/15 00:37:23;;;;;;;;;;;;;;;;;;112208;211;175681;-50
2023/10/15 00:39:59;;;;;;;;;;;;;;;;;;112324;211;42928;-50
2023/10/15 00:42:31;;;;;;;;;;;;;;;;;;112326;211;41712;-49
2023/10/15 00:45:08;;;;;;;;;;;;;;;;;;112390;211;38497;-50
2023/10/15 00:47:40;;;;;;;;;;;;;;;;;;112454;211;45342;-49
2023/10/15 00:50:14;;;;;;;;;;;;;;;;;;112385;211;43123;-50
2023/10/15 00:52:50;;;;;;;;;;;;;;;;;;112324;211;41597;-49
2023/10/15 00:55:28;;;;;;;;;;;;;;;;;;112375;211;38908;-50
2023/10/15 00:58:07;;;;;;;;;;;;;;;;;;112349;211;45377;-50
2023/10/15 01:00:52;;;;;;;;;;;;;;;;;;112371;211;43130;-50
2023/10/15 01:03:30;;;;;;;;;;;;;;;;;;112372;211;41524;-50
2023/10/15 01:06:13;;;;;;;;;;;;;;;;;;112226;211;39120;-50
2023/10/15 01:08:47;;;;;;;;;;;;;;;;;;112467;211;39838;-50
2023/10/15 01:11:19;;;;;;;;;;;;;;;;;;112384;211;42612;-49
2023/10/15 01:13:54;;;;;;;;;;;;;;;;;;112353;211;41842;-50
2023/10/15 01:16:36;;;;;;;;;;;;;;;;;;112309;211;38770;-50
2023/10/15 01:19:18;;;;;;;;;;;;;;;;;;112345;211;39609;-50
2023/10/15 01:21:53;;;;;;;;;;;;;;;;;;112357;211;42823;-49
2023/10/15 01:24:26;;;;;;;;;;;;;;;;;;112366;211;41383;-51
2023/10/15 01:27:08;;;;;;;;;;;;;;;;;;112348;211;38711;-51
2023/10/15 01:29:41;;;;;;;;;;;;;;;;;;112355;211;39273;-50
2023/10/15 01:32:18;;;;;;;;;;;;;;;;;;112390;211;42773;-49
2023/10/15 01:34:52;;;;;;;;;;;;;;;;;;112384;211;42187;-50
2023/10/15 01:37:28;;;;;;;;;;;;;;;;;;112323;211;38889;-51
2023/10/15 01:40:16;;;;;;;;;;;;;;;;;;112332;211;40702;-49
2023/10/15 01:42:54;;;;;;;;;;;;;;;;;;112348;211;42998;-50
2023/10/15 01:45:32;;;;;;;;;;;;;;;;;;112284;211;41611;-49
2023/10/15 01:48:17;;;;;;;;;;;;;;;;;;112324;211;39128;-51
2023/10/15 01:50:50;;;;;;;;;;;;;;;;;;112408;211;39729;-50
2023/10/15 01:53:24;;;;;;;;;;;;;;;;;;112357;211;42993;-49
2023/10/15 01:56:02;;;;;;;;;;;;;;;;;;112318;211;41682;-51
2023/10/15 01:58:39;;;;;;;;;;;;;;;;;;112318;211;38902;-48
2023/10/15 02:01:31;;;;;;;;;;;;;;;;;;111638;211;913857;-49
2023/10/15 02:04:06;;;;;;;;;;;;;;;;;;112379;211;44365;-50
2023/10/15 02:06:44;;;;;;;;;;;;;;;;;;112381;211;42787;-50
2023/10/15 02:09:21;;;;;;;;;;;;;;;;;;112343;211;38511;-47
2023/10/15 02:11:55;;;;;;;;;;;;;;;;;;112422;211;39756;-50
2023/10/15 02:14:28;;;;;;;;;;;;;;;;;;112341;211;44176;-48
2023/10/15 02:17:03;;;;;;;;;;;;;;;;;;112336;211;41377;-48
2023/10/15 02:19:40;;;;;;;;;;;;;;;;;;112291;211;40012;-50
2023/10/15 02:22:16;;;;;;;;;;;;;;;;;;112356;211;39858;-45
2023/10/15 02:24:56;;;;;;;;;;;;;;;;;;112307;211;42959;-50
2023/10/15 02:27:34;;;;;;;;;;;;;;;;;;112370;211;41844;-47
2023/10/15 02:30:15;;;;;;;;;;;;;;;;;;112325;211;44711;-46
2023/10/15 02:32:47;;;;;;;;;;;;;;;;;;112381;211;39828;-50
2023/10/15 02:35:24;;;;;;;;;;;;;;;;;;112372;211;44246;-49
2023/10/15 02:37:59;;;;;;;;;;;;;;;;;;112309;211;42875;-48
2023/10/15 02:40:55;;;;;;;;;;;;;;;;;;112332;211;45289;-50
2023/10/15 02:43:29;;;;;;;;;;;;;;;;;;112379;211;40817;-50
2023/10/15 02:46:17;;;;;;;;;;;;;;;;;;112345;211;42942;-50
2023/10/15 02:48:54;;;;;;;;;;;;;;;;;;112335;211;41690;-50
2023/10/15 02:51:28;;;;;;;;;;;;;;;;;;112322;211;39101;-50
2023/10/15 02:54:27;;;;;;;;;;;;;;;;;;112388;211;39606;-50
2023/10/15 02:57:00;;;;;;;;;;;;;;;;;;112338;211;42586;-50
2023/10/15 02:59:37;;;;;;;;;;;;;;;;;;112177;211;175677;-47
2023/10/15 03:02:11;;;;;;;;;;;;;;;;;;112358;211;38894;-50
2023/10/15 03:04:53;;;;;;;;;;;;;;;;;;112326;211;39700;-47
2023/10/15 03:07:30;;;;;;;;;;;;;;;;;;112369;211;43208;-49
2023/10/15 03:10:03;;;;;;;;;;;;;;;;;;112298;211;41812;-47
2023/10/15 03:12:43;;;;;;;;;;;;;;;;;;112338;211;39115;-49
2023/10/15 03:15:18;;;;;;;;;;;;;;;;;;112251;211;175671;-50
2023/10/15 03:17:50;;;;;;;;;;;;;;;;;;112329;211;42835;-50
2023/10/15 03:20:35;;;;;;;;;;;;;;;;;;112291;211;41609;-47
2023/10/15 03:23:16;;;;;;;;;;;;;;;;;;112370;211;38734;-49
2023/10/15 03:25:58;;;;;;;;;;;;;;;;;;112388;211;39564;-50
2023/10/15 03:28:37;;;;;;;;;;;;;;;;;;112347;211;42549;-50
2023/10/15 03:31:17;;;;;;;;;;;;;;;;;;112353;211;41861;-50
2023/10/15 03:36:57;;;;;;;;;;;;;;;;;;112331;211;39682;-49
2023/10/15 03:42:26;;;;;;;;;;;;;;;;;;112336;211;41403;-46
2023/10/15 03:45:00;;;;;;;;;;;;;;;;;;112369;211;38869;-49
2023/10/15 03:47:32;;;;;;;;;;;;;;;;;;111838;211;649609;-49
2023/10/15 03:50:09;;;;;;;;;;;;;;;;;;112309;211;44018;-47
2023/10/15 03:52:44;;;;;;;;;;;;;;;;;;112373;211;41624;-49
2023/10/15 03:55:17;;;;;;;;;;;;;;;;;;112265;211;192241;-46
2023/10/15 03:57:53;;;;;;;;;;;;;;;;;;112374;211;40842;-46
2023/10/15 04:00:35;;;;;;;;;;;;;;;;;;112348;211;42897;-50
2023/10/15 04:03:18;;;;;;;;;;;;;;;;;;112356;211;41829;-50
2023/10/15 04:06:00;;;;;;;;;;;;;;;;;;112399;211;40886;-47
2023/10/15 04:08:38;;;;;;;;;;;;;;;;;;112363;211;40355;-49
2023/10/15 04:11:12;;;;;;;;;;;;;;;;;;112348;211;42738;-48
2023/10/15 04:13:46;;;;;;;;;;;;;;;;;;112384;211;41605;-49
2023/10/15 04:16:22;;;;;;;;;;;;;;;;;;112255;211;175306;-46
2023/10/15 04:19:00;;;;;;;;;;;;;;;;;;112354;211;39944;-50
2023/10/15 04:21:38;;;;;;;;;;;;;;;;;;112300;211;43054;-48
2023/10/15 04:24:17;;;;;;;;;;;;;;;;;;112375;211;41913;-48
2023/10/15 04:26:53;;;;;;;;;;;;;;;;;;112340;211;39330;-50
2023/10/15 04:29:27;;;;;;;;;;;;;;;;;;112382;211;39593;-49
2023/10/15 04:32:04;;;;;;;;;;;;;;;;;;112360;211;43001;-48
2023/10/15 04:34:38;;;;;;;;;;;;;;;;;;112365;211;41856;-49
2023/10/15 04:37:16;;;;;;;;;;;;;;;;;;112393;211;38711;-47
2023/10/15 04:39:53;;;;;;;;;;;;;;;;;;112366;211;39606;-49
2023/10/15 04:42:43;;;;;;;;;;;;;;;;;;112314;211;43325;-48
2023/10/15 04:45:23;;;;;;;;;;;;;;;;;;112396;211;41441;-50
2023/10/15 04:47:59;;;;;;;;;;;;;;;;;;112385;211;38753;-49
2023/10/15 04:50:36;;;;;;;;;;;;;;;;;;112327;211;39615;-50
2023/10/15 04:53:14;;;;;;;;;;;;;;;;;;112387;211;43173;-50
2023/10/15 04:55:52;;;;;;;;;;;;;;;;;;112382;211;41990;-50
2023/10/15 04:58:27;;;;;;;;;;;;;;;;;;112423;211;39475;-49
2023/10/15 05:01:00;;;;;;;;;;;;;;;;;;112295;211;39720;-46
2023/10/15 05:03:36;;;;;;;;;;;;;;;;;;112235;211;175690;-47
2023/10/15 05:06:12;;;;;;;;;;;;;;;;;;112380;211;41650;-50
2023/10/15 05:08:47;;;;;;;;;;;;;;;;;;112366;211;38863;-47
2023/10/15 05:11:23;;;;;;;;;;;;;;;;;;112358;211;39772;-49
2023/10/15 05:13:59;;;;;;;;;;;;;;;;;;112422;211;43105;-49
2023/10/15 05:16:31;;;;;;;;;;;;;;;;;;112360;211;41635;-47
2023/10/15 05:19:06;;;;;;;;;;;;;;;;;;112430;211;39024;-50
2023/10/15 05:21:44;;;;;;;;;;;;;;;;;;112338;211;39551;-50
2023/10/15 05:24:19;;;;;;;;;;;;;;;;;;111600;211;895175;-50
2023/10/15 05:26:53;;;;;;;;;;;;;;;;;;112358;211;42011;-50
2023/10/15 05:29:27;;;;;;;;;;;;;;;;;;112393;211;38891;-50
2023/10/15 05:32:00;;;;;;;;;;;;;;;;;;112373;211;39407;-49
2023/10/15 05:34:33;;;;;;;;;;;;;;;;;;112277;211;175409;-50
2023/10/15 05:37:06;;;;;;;;;;;;;;;;;;112381;211;41939;-50
2023/10/15 05:39:42;;;;;;;;;;;;;;;;;;112381;211;38827;-50
2023/10/15 05:42:15;;;;;;;;;;;;;;;;;;112363;211;39780;-49
2023/10/15 05:44:48;;;;;;;;;;;;;;;;;;112401;211;43192;-50
2023/10/15 05:47:22;;;;;;;;;;;;;;;;;;112400;211;43990;-50
2023/10/15 05:49:58;;;;;;;;;;;;;;;;;;112367;211;39866;-46
2023/10/15 05:52:31;;;;;;;;;;;;;;;;;;112356;211;41014;-49
2023/10/15 05:55:08;;;;;;;;;;;;;;;;;;112389;211;42855;-48
2023/10/15 05:57:40;;;;;;;;;;;;;;;;;;112425;211;42835;-56
2023/10/15 06:00:26;;;;;;;;;;;;;;;;;;112403;211;40113;-49
2023/10/15 06:02:59;;;;;;;;;;;;;;;;;;112357;211;39608;-49
2023/10/15 06:05:32;;;;;;;;;;;;;;;;;;112350;211;44050;-47
2023/10/15 06:08:07;;;;;;;;;;;;;;;;;;112401;211;41589;-49
2023/10/15 06:10:39;;;;;;;;;;;;;;;;;;112416;211;39848;-47
2023/10/15 06:13:11;;;;;;;;;;;;;;;;;;112337;211;39568;-49
2023/10/15 06:15:43;;;;;;;;;;;;;;;;;;112348;211;42689;-48
2023/10/15 06:18:16;;;;;;;;;;;;;;;;;;112437;211;41778;-50
2023/10/15 06:20:53;;;;;;;;;;;;;;;;;;112397;211;38729;-50
2023/10/15 06:23:27;;;;;;;;;;;;;;;;;;112353;211;39586;-50
2023/10/15 06:26:02;;;;;;;;;;;;;;;;;;112418;211;42784;-50
2023/10/15 06:28:37;;;;;;;;;;;;;;;;;;112411;211;41614;-49
2023/10/15 06:31:11;;;;;;;;;;;;;;;;;;112428;211;38778;-49
2023/10/15 06:33:45;;;;;;;;;;;;;;;;;;112316;211;39783;-49
2023/10/15 06:36:18;;;;;;;;;;;;;;;;;;112386;211;42774;-48
2023/10/15 06:38:56;;;;;;;;;;;;;;;;;;112399;211;41859;-49
2023/10/15 06:41:31;;;;;;;;;;;;;;;;;;112368;211;38661;-49
2023/10/15 06:44:04;;;;;;;;;;;;;;;;;;112329;211;39597;-49
2023/10/15 06:46:38;;;;;;;;;;;;;;;;;;112416;211;42949;-50
2023/10/15 06:49:11;;;;;;;;;;;;;;;;;;112437;211;41745;-50
2023/10/15 06:51:44;;;;;;;;;;;;;;;;;;112446;211;39993;-49
2023/10/15 06:54:18;;;;;;;;;;;;;;;;;;112343;211;39380;-49
2023/10/15 06:56:53;;;;;;;;;;;;;;;;;;112356;211;42682;-49
2023/10/15 06:59:27;;;;;;;;;;;;;;;;;;112429;211;41809;-50
2023/10/15 07:02:00;;;;;;;;;;;;;;;;;;112397;211;38661;-49
2023/10/15 07:04:35;;;;;;;;;;;;;;;;;;112396;211;39789;-50
2023/10/15 07:07:14;;;;;;;;;;;;;;;;;;112397;211;42779;-50
2023/10/15 07:09:51;;;;;;;;;;;;;;;;;;111700;211;897620;-50
2023/10/15 07:12:23;;;;;;;;;;;;;;;;;;112421;211;38717;-50
2023/10/15 07:14:59;;;;;;;;;;;;;;;;;;112393;211;41016;-50
2023/10/15 07:17:34;;;;;;;;;;;;;;;;;;112347;211;44097;-50
2023/10/15 07:20:14;;;;;;;;;;;;;;;;;;112373;211;41719;-48
2023/10/15 07:22:49;;;;;;;;;;;;;;;;;;112392;211;38991;-50
2023/10/15 07:25:25;;;;;;;;;;;;;;;;;;112419;211;38625;-50
2023/10/15 07:28:01;;;;;;;;;;;;;;;;;;112343;211;43795;-49
2023/10/15 07:30:33;;;;;;;;;;;;;;;;;;112387;211;42881;-50
2023/10/15 07:33:07;;;;;;;;;;;;;;;;;;112422;211;38702;-50
2023/10/15 07:35:39;;;;;;;;;;;;;;;;;;112337;211;39350;-50
2023/10/15 07:38:12;;;;;;;;;;;;;;;;;;112418;211;43201;-50
2023/10/15 07:40:45;;;;;;;;;;;;;;;;;;112308;211;175696;-50
2023/10/15 07:43:19;;;;;;;;;;;;;;;;;;112383;211;39013;-50
2023/10/15 07:45:53;;;;;;;;;;;;;;;;;;112302;211;39952;-50
2023/10/15 07:48:28;;;;;;;;;;;;;;;;;;112423;211;43990;-50
2023/10/15 07:51:00;;;;;;;;;;;;;;;;;;112398;211;41673;-49
2023/10/15 07:53:36;;;;;;;;;;;;;;;;;;112345;211;38886;-49
2023/10/15 07:56:14;;;;;;;;;;;;;;;;;;112261;211;175728;-45
2023/10/15 07:58:48;;;;;;;;;;;;;;;;;;112416;211;42799;-48
2023/10/15 08:01:20;;;;;;;;;;;;;;;;;;112416;211;41786;-48
2023/10/15 08:03:59;;;;;;;;;;;;;;;;;;112394;211;38914;-49
2023/10/15 08:06:32;;;;;;;;;;;;;;;;;;112391;211;41822;-50
2023/10/15 08:09:10;;;;;;;;;;;;;;;;;;112345;211;43068;-47
2023/10/15 08:11:43;;;;;;;;;;;;;;;;;;112391;211;41751;-50
2023/10/15 08:14:19;;;;;;;;;;;;;;;;;;112403;211;38936;-49
2023/10/15 08:16:52;;;;;;;;;;;;;;;;;;112333;211;39788;-50
2023/10/15 08:19:28;;;;;;;;;;;;;;;;;;112391;211;42805;-48
2023/10/15 08:22:01;;;;;;;;;;;;;;;;;;112411;211;41852;-49
2023/10/15 08:24:36;;;;;;;;;;;;;;;;;;112396;211;38721;-50
2023/10/15 08:27:13;;;;;;;;;;;;;;;;;;112351;211;40951;-47
2023/10/15 08:29:47;;;;;;;;;;;;;;;;;;112378;211;44066;-49
2023/10/15 08:32:22;;;;;;;;;;;;;;;;;;112351;211;41728;-47
2023/10/15 08:34:56;;;;;;;;;;;;;;;;;;112378;211;38934;-46
2023/10/15 08:37:35;;;;;;;;;;;;;;;;;;112342;211;44191;-49
2023/10/15 08:40:15;;;;;;;;;;;;;;;;;;112359;211;42599;-48
2023/10/15 08:42:54;;;;;;;;;;;;;;;;;;112377;211;41802;-46
2023/10/15 08:45:28;;;;;;;;;;;;;;;;;;112348;211;38756;-50
2023/10/15 08:48:04;;;;;;;;;;;;;;;;;;112399;211;45088;-49
2023/10/15 08:50:37;;;;;;;;;;;;;;;;;;112379;211;42859;-49
2023/10/15 08:53:14;;;;;;;;;;;;;;;;;;112370;211;42091;-49
2023/10/15 08:55:49;;;;;;;;;;;;;;;;;;112323;211;38739;-46
2023/10/15 08:58:24;;;;;;;;;;;;;;;;;;112394;211;45417;-49
2023/10/15 09:01:00;;;;;;;;;;;;;;;;;;112359;211;42946;-43
2023/10/15 09:03:33;;;;;;;;;;;;;;;;;;112353;211;43317;-41
2023/10/15 09:06:07;;;;;;;;;;;;;;;;;;112359;211;38739;-42
2023/10/15 09:08:41;;;;;;;;;;;;;;;;;;112361;211;47047;-41
2023/10/15 09:11:13;;;;;;;;;;;;;;;;;;112402;211;42721;-41
2023/10/15 09:13:52;;;;;;;;;;;;;;;;;;112406;211;41640;-41
2023/10/15 09:16:26;;;;;;;;;;;;;;;;;;112389;211;38871;-41
2023/10/15 09:19:06;;;;;;;;;;;;;;;;;;112419;211;46209;-42
2023/10/15 09:21:41;;;;;;;;;;;;;;;;;;112402;211;42529;-43
2023/10/15 09:24:14;;;;;;;;;;;;;;;;;;112363;211;42044;-42
2023/10/15 09:26:51;;;;;;;;;;;;;;;;;;112372;211;38413;-43
2023/10/15 09:29:30;;;;;;;;;;;;;;;;;;112386;211;39594;-42
2023/10/15 09:32:04;;;;;;;;;;;;;;;;;;112426;211;43224;-41
2023/10/15 09:34:38;;;;;;;;;;;;;;;;;;112352;211;41805;-41
2023/10/15 09:37:15;;;;;;;;;;;;;;;;;;112252;211;175676;-42
2023/10/15 09:39:51;;;;;;;;;;;;;;;;;;112401;211;40987;-42
2023/10/15 09:42:29;;;;;;;;;;;;;;;;;;112401;211;43213;-42
2023/10/15 09:45:05;;;;;;;;;;;;;;;;;;112373;211;41376;-42
2023/10/15 09:47:39;;;;;;;;;;;;;;;;;;112340;211;38747;-42
2023/10/15 09:50:16;;;;;;;;;;;;;;;;;;112412;211;39607;-42
2023/10/15 09:52:55;;;;;;;;;;;;;;;;;;112421;211;42556;-43
2023/10/15 09:55:31;;;;;;;;;;;;;;;;;;112419;211;41434;-42
2023/10/15 09:58:10;;;;;;;;;;;;;;;;;;112358;211;39001;-45
2023/10/15 10:00:59;;;;;;;;;;;;;;;;;;112395;211;39417;-42
2023/10/15 10:03:59;;;;;;;;;;;;;;;;;;112396;211;42915;-42
2023/10/15 10:06:53;;;;;;;;;;;;;;;;;;112386;211;41682;-42
2023/10/15 10:09:54;;;;;;;;;;;;;;;;;;112372;211;38997;-45
2023/10/15 10:12:36;;;;;;;;;;;;;;;;;;112408;211;39712;-42
2023/10/15 10:15:28;;;;;;;;;;;;;;;;;;112378;211;45423;-42
2023/10/15 10:18:02;;;;;;;;;;;;;;;;;;112362;211;41798;-41
2023/10/15 10:20:37;;;;;;;;;;;;;;;;;;112339;211;38698;-43
2023/10/15 10:23:09;;;;;;;;;;;;;;;;;;112398;211;39671;-39
2023/10/15 10:25:45;;;;;;;;;;;;;;;;;;112320;211;42782;-39
2023/10/15 10:28:19;;;;;;;;;;;;;;;;;;112370;211;41366;-38
2023/10/15 10:30:55;;;;;;;;;;;;;;;;;;112365;211;38678;-38
2023/10/15 10:33:54;;;;;;;;;;;;;;;;;;112399;211;39628;-39
2023/10/15 10:36:30;;;;;;;;;;;;;;;;;;112270;211;44156;-39
2023/10/15 10:39:13;;;;;;;;;;;;;;;;;;112389;211;43081;-39
2023/10/15 10:41:49;;;;;;;;;;;;;;;;;;112432;211;38827;-44
2023/10/15 10:44:42;;;;;;;;;;;;;;;;;;112280;211;39709;-34
2023/10/15 10:47:24;;;;;;;;;;;;;;;;;;112346;211;43316;-35
2023/10/15 10:49:59;;;;;;;;;;;;;;;;;;112359;210;41888;-32
2023/10/15 10:52:36;;;;;;;;;;;;;;;;;;112225;211;175266;-35
2023/10/15 10:55:34;;;;;;;;;;;;;;;;;;112364;210;39652;-34
2023/10/15 10:58:24;;;;;;;;;;;;;;;;;;112346;211;42886;-32
2023/10/15 11:00:58;;;;;;;;;;;;;;;;;;112377;211;48681;-32
2023/10/15 11:03:34;;;;;;;;;;;;;;;;;;112371;211;38926;-33
2023/10/15 11:06:08;;;;;;;;;;;;;;;;;;112426;211;39572;-32
2023/10/15 11:08:40;;;;;;;;;;;;;;;;;;112404;211;43059;-37
2023/10/15 11:11:15;;;;;;;;;;;;;;;;;;112318;211;47557;-37
2023/10/15 11:13:52;;;;;;;;;;;;;;;;;;112382;211;38767;-33
2023/10/15 11:16:24;;;;;;;;;;;;;;;;;;112239;211;175649;-36
2023/10/15 11:18:59;;;;;;;;;;;;;;;;;;112390;211;43166;-33
2023/10/15 11:21:34;;;;;;;;;;;;;;;;;;112341;211;47595;-33
2023/10/15 11:24:09;;;;;;;;;;;;;;;;;;112446;211;39013;-36
2023/10/15 11:26:44;;;;;;;;;;;;;;;;;;112393;211;39566;-37
2023/10/15 11:29:20;;;;;;;;;;;;;;;;;;112370;210;42812;-36
2023/10/15 11:31:53;;;;;;;;;;;;;;;;;;112445;211;47375;-36
2023/10/15 11:34:33;;;;;;;;;;;;;;;;;;112349;211;39043;-35
2023/10/15 11:37:09;;;;;;;;;;;;;;;;;;112364;211;39785;-35
2023/10/15 11:39:48;;;;;;;;;;;;;;;;;;112342;211;43212;-41
2023/10/15 11:42:21;;;;;;;;;;;;;;;;;;112319;210;48974;-38
2023/10/15 11:44:58;;;;;;;;;;;;;;;;;;112361;211;38423;-35
2023/10/15 11:47:32;;;;;;;;;;;;;;;;;;111886;211;638531;-36
2023/10/15 11:50:09;;;;;;;;;;;;;;;;;;112342;211;42818;-36
2023/10/15 11:52:44;;;;;;;;;;;;;;;;;;112416;211;47495;-36
2023/10/15 11:55:22;;;;;;;;;;;;;;;;;;112364;211;38857;-36
2023/10/15 11:57:54;;;;;;;;;;;;;;;;;;112402;211;39650;-36
2023/10/15 12:00:32;;;;;;;;;;;;;;;;;;112368;211;42792;-36
2023/10/15 12:03:06;;;;;;;;;;;;;;;;;;112394;211;49326;-36
2023/10/15 12:05:38;;;;;;;;;;;;;;;;;;112354;211;40901;-36
2023/10/15 12:08:16;;;;;;;;;;;;;;;;;;112374;211;39345;-36
2023/10/15 12:10:51;;;;;;;;;;;;;;;;;;112339;211;43090;-36
2023/10/15 12:13:26;;;;;;;;;;;;;;;;;;112374;211;48104;-37
2023/10/15 12:15:59;;;;;;;;;;;;;;;;;;112315;211;38484;-36
2023/10/15 12:18:31;;;;;;;;;;;;;;;;;;112406;211;40920;-36
2023/10/15 12:21:06;;;;;;;;;;;;;;;;;;112332;211;44071;-37
2023/10/15 12:23:43;;;;;;;;;;;;;;;;;;112351;211;47951;-37
2023/10/15 12:26:15;;;;;;;;;;;;;;;;;;112413;211;38738;-37
2023/10/15 12:28:51;;;;;;;;;;;;;;;;;;112347;211;39871;-36
2023/10/15 12:31:24;;;;;;;;;;;;;;;;;;112358;211;42805;-36
2023/10/15 12:34:00;;;;;;;;;;;;;;;;;;112341;211;49280;-36
2023/10/15 12:36:34;;;;;;;;;;;;;;;;;;112396;211;39251;-37
2023/10/15 12:39:09;;;;;;;;;;;;;;;;;;112404;211;40888;-37
2023/10/15 12:41:43;;;;;;;;;;;;;;;;;;112332;211;43337;-37
2023/10/15 12:44:17;;;;;;;;;;;;;;;;;;112366;211;47598;-35
2023/10/15 12:46:50;;;;;;;;;;;;;;;;;;112429;211;38716;-35
2023/10/15 12:49:24;;;;;;;;;;;;;;;;;;112437;211;39397;-35
2023/10/15 12:51:58;;;;;;;;;;;;;;;;;;112374;211;45505;-35
2023/10/15 12:54:33;;;;;;;;;;;;;;;;;;112333;211;47749;-36
2023/10/15 12:57:06;;;;;;;;;;;;;;;;;;112382;211;40065;-35
2023/10/15 12:59:40;;;;;;;;;;;;;;;;;;112362;211;39541;-35
2023/10/15 13:02:13;;;;;;;;;;;;;;;;;;112327;211;42777;-35
2023/10/15 13:04:46;;;;;;;;;;;;;;;;;;112395;211;47874;-35
2023/10/15 13:07:20;;;;;;;;;;;;;;;;;;112368;211;38958;-35
2023/10/15 13:09:52;;;;;;;;;;;;;;;;;;112376;211;39699;-35
2023/10/15 13:12:26;;;;;;;;;;;;;;;;;;112394;211;45412;-35
2023/10/15 13:14:58;;;;;;;;;;;;;;;;;;112378;211;41398;-35
2023/10/15 13:17:30;;;;;;;;;;;;;;;;;;112362;211;39928;-35
2023/10/15 13:20:06;;;;;;;;;;;;;;;;;;112427;211;41083;-35
2023/10/15 13:22:39;;;;;;;;;;;;;;;;;;112354;211;42853;-35
2023/10/15 13:25:12;;;;;;;;;;;;;;;;;;112297;211;48208;-35
2023/10/15 13:27:45;;;;;;;;;;;;;;;;;;112420;211;38749;-35
2023/10/15 13:30:17;;;;;;;;;;;;;;;;;;112389;211;40165;-35
2023/10/15 13:32:49;;;;;;;;;;;;;;;;;;112391;211;44387;-35
2023/10/15 13:35:24;;;;;;;;;;;;;;;;;;112381;211;41632;-36
2023/10/15 13:37:58;;;;;;;;;;;;;;;;;;112417;211;38650;-37
2023/10/15 13:40:32;;;;;;;;;;;;;;;;;;112410;211;40640;-37
2023/10/15 13:43:04;;;;;;;;;;;;;;;;;;112402;211;43165;-37
2023/10/15 13:45:38;;;;;;;;;;;;;;;;;;112357;211;49983;-35
2023/10/15 13:48:12;;;;;;;;;;;;;;;;;;112380;211;38894;-36
2023/10/15 13:50:46;;;;;;;;;;;;;;;;;;112441;211;39935;-35
2023/10/15 13:53:19;;;;;;;;;;;;;;;;;;112307;211;44005;-36
2023/10/15 13:55:54;;;;;;;;;;;;;;;;;;112361;211;47879;-36
2023/10/15 13:58:28;;;;;;;;;;;;;;;;;;112411;211;38891;-36
2023/10/15 14:01:01;;;;;;;;;;;;;;;;;;112350;211;39589;-37
2023/10/15 14:03:37;;;;;;;;;;;;;;;;;;112394;211;42834;-37
2023/10/15 14:06:11;;;;;;;;;;;;;;;;;;112354;211;49028;-37
2023/10/15 14:08:44;;;;;;;;;;;;;;;;;;112341;211;38794;-37
2023/10/15 14:11:17;;;;;;;;;;;;;;;;;;112369;211;39680;-38
2023/10/15 14:13:52;;;;;;;;;;;;;;;;;;112410;211;43071;-37
2023/10/15 14:16:24;;;;;;;;;;;;;;;;;;112383;211;48029;-37
2023/10/15 14:18:56;;;;;;;;;;;;;;;;;;112362;211;39950;-36
2023/10/15 14:21:28;;;;;;;;;;;;;;;;;;112414;211;40873;-36
2023/10/15 14:24:00;;;;;;;;;;;;;;;;;;112340;211;43268;-36
2023/10/15 14:26:32;;;;;;;;;;;;;;;;;;112403;211;41855;-36
2023/10/15 14:29:09;;;;;;;;;;;;;;;;;;112424;211;38830;-36
2023/10/15 14:31:41;;;;;;;;;;;;;;;;;;112377;211;39743;-36
2023/10/15 14:34:15;;;;;;;;;;;;;;;;;;112374;211;41761;-36
2023/10/15 14:36:51;;;;;;;;;;;;;;;;;;112393;211;48011;-36
2023/10/15 14:39:25;;;;;;;;;;;;;;;;;;112371;211;38749;-36
2023/10/15 14:42:00;;;;;;;;;;;;;;;;;;112369;211;39785;-36
2023/10/15 14:44:32;;;;;;;;;;;;;;;;;;112337;211;42985;-36
2023/10/15 14:47:05;;;;;;;;;;;;;;;;;;112399;211;50232;-36
2023/10/15 14:49:37;;;;;;;;;;;;;;;;;;112359;211;39956;-36
2023/10/15 14:52:09;;;;;;;;;;;;;;;;;;112366;211;40356;-36
2023/10/15 14:54:41;;;;;;;;;;;;;;;;;;112338;211;44476;-36
2023/10/15 14:57:17;;;;;;;;;;;;;;;;;;112365;211;41950;-35
2023/10/15 14:59:49;;;;;;;;;;;;;;;;;;112393;211;38788;-36
2023/10/15 15:02:21;;;;;;;;;;;;;;;;;;112419;211;39746;-36
2023/10/15 15:04:56;;;;;;;;;;;;;;;;;;112375;211;42901;-36
2023/10/15 15:07:30;;;;;;;;;;;;;;;;;;112365;211;41476;-36
2023/10/15 15:10:04;;;;;;;;;;;;;;;;;;112374;211;39840;-36
2023/10/15 15:12:36;;;;;;;;;;;;;;;;;;112388;211;39599;-36
2023/10/15 15:15:13;;;;;;;;;;;;;;;;;;112357;211;44271;-36
2023/10/15 15:17:47;;;;;;;;;;;;;;;;;;112385;211;48808;-36
2023/10/15 15:20:21;;;;;;;;;;;;;;;;;;112388;211;40046;-36
2023/10/15 15:22:54;;;;;;;;;;;;;;;;;;112393;211;40971;-36
2023/10/15 15:25:26;;;;;;;;;;;;;;;;;;112416;211;42865;-36
2023/10/15 15:27:59;;;;;;;;;;;;;;;;;;112403;211;41694;-36
2023/10/15 15:30:34;;;;;;;;;;;;;;;;;;112388;211;38733;-36
2023/10/15 15:33:11;;;;;;;;;;;;;;;;;;112365;211;39452;-36
2023/10/15 15:35:51;;;;;;;;;;;;;;;;;;112302;211;42838;-36
2023/10/15 15:38:27;;;;;;;;;;;;;;;;;;112398;211;48241;-36
2023/10/15 15:41:06;;;;;;;;;;;;;;;;;;112372;211;38691;-36
2023/10/15 15:43:38;;;;;;;;;;;;;;;;;;112371;211;40109;-36
2023/10/15 15:46:14;;;;;;;;;;;;;;;;;;112333;211;43000;-36
2023/10/15 15:48:47;;;;;;;;;;;;;;;;;;112356;211;41840;-36
2023/10/15 15:51:20;;;;;;;;;;;;;;;;;;112365;211;39171;-36
2023/10/15 15:53:54;;;;;;;;;;;;;;;;;;112369;211;39688;-36
2023/10/15 15:56:28;;;;;;;;;;;;;;;;;;112335;211;43737;-36
2023/10/15 15:59:03;;;;;;;;;;;;;;;;;;112365;211;41610;-36
2023/10/15 16:01:40;;;;;;;;;;;;;;;;;;112361;211;39828;-36
2023/10/15 16:04:17;;;;;;;;;;;;;;;;;;112339;211;40626;-36
2023/10/15 16:06:49;;;;;;;;;;;;;;;;;;112304;211;42761;-36
2023/10/15 16:09:25;;;;;;;;;;;;;;;;;;112401;211;41863;-36
2023/10/15 16:11:59;;;;;;;;;;;;;;;;;;112383;211;39971;-36
2023/10/15 16:14:35;;;;;;;;;;;;;;;;;;112373;211;40862;-36
2023/10/15 16:17:10;;;;;;;;;;;;;;;;;;112341;211;43102;-36
2023/10/15 16:19:42;;;;;;;;;;;;;;;;;;112362;211;42885;-36
2023/10/15 16:22:13;;;;;;;;;;;;;;;;;;112375;211;38895;-36
2023/10/15 16:24:45;;;;;;;;;;;;;;;;;;112385;211;39588;-36
2023/10/15 16:27:28;;;;;;;;;;;;;;;;;;112358;211;43962;-36
2023/10/15 16:30:04;;;;;;;;;;;;;;;;;;112374;211;43100;-36
2023/10/15 16:32:36;;;;;;;;;;;;;;;;;;111697;211;897246;-36
2023/10/15 16:35:12;;;;;;;;;;;;;;;;;;112415;211;39296;-36
2023/10/15 16:37:44;;;;;;;;;;;;;;;;;;112345;211;42790;-36
2023/10/15 16:40:17;;;;;;;;;;;;;;;;;;112348;211;42935;-36
2023/10/15 16:42:49;;;;;;;;;;;;;;;;;;112347;211;38738;-36
2023/10/15 16:45:25;;;;;;;;;;;;;;;;;;112385;211;39607;-36
2023/10/15 16:47:57;;;;;;;;;;;;;;;;;;112323;211;42912;-36
2023/10/15 16:50:30;;;;;;;;;;;;;;;;;;112397;211;41693;-36
2023/10/15 16:53:07;;;;;;;;;;;;;;;;;;112387;211;38448;-36
2023/10/15 16:55:41;;;;;;;;;;;;;;;;;;112392;211;40877;-36
2023/10/15 16:58:14;;;;;;;;;;;;;;;;;;112282;211;44197;-36
2023/10/15 17:00:48;;;;;;;;;;;;;;;;;;112365;211;41641;-36
2023/10/15 17:03:21;;;;;;;;;;;;;;;;;;112387;211;38844;-36
2023/10/15 17:05:53;;;;;;;;;;;;;;;;;;112379;211;39277;-36
2023/10/15 17:08:29;;;;;;;;;;;;;;;;;;112347;211;42854;-36
2023/10/15 17:11:04;;;;;;;;;;;;;;;;;;112365;211;41614;-36
2023/10/15 17:13:36;;;;;;;;;;;;;;;;;;112388;211;38725;-36
2023/10/15 17:16:10;;;;;;;;;;;;;;;;;;112359;211;39580;-36
2023/10/15 17:18:44;;;;;;;;;;;;;;;;;;112311;211;42796;-36
2023/10/15 17:21:18;;;;;;;;;;;;;;;;;;112351;211;41863;-36
2023/10/15 17:23:54;;;;;;;;;;;;;;;;;;112364;211;38697;-35
2023/10/15 17:26:28;;;;;;;;;;;;;;;;;;112354;211;39559;-36
2023/10/15 17:29:04;;;;;;;;;;;;;;;;;;112329;211;43012;-36
2023/10/15 17:31:38;;;;;;;;;;;;;;;;;;112229;211;41805;-36
2023/10/15 17:34:12;;;;;;;;;;;;;;;;;;112333;211;38709;-36
2023/10/15 17:36:45;;;;;;;;;;;;;;;;;;112350;211;39754;-36
2023/10/15 17:39:27;;;;;;;;;;;;;;;;;;112359;211;43009;-36
2023/10/15 17:41:59;;;;;;;;;;;;;;;;;;112382;211;41711;-36
2023/10/15 17:44:31;;;;;;;;;;;;;;;;;;112389;211;38826;-36
2023/10/15 17:47:06;;;;;;;;;;;;;;;;;;112332;211;39612;-36